FW6434 Weather Reports


time (UTC)temp
C
wind
direction
speed
KPH
gust
KPH
rain 1hr
cm
rain 24hr
cm
rain mn
cm
humidity
%
barometer
mb
20200606172505 23 16 1.6 6.4 0.00 0.00 0.00 53 1006.3
20200606172005 23 10 1.6 3.2 0.00 0.00 0.00 53 1006.2
20200606171505 23 348 3.2 3.2 0.00 0.00 0.00 53 1006.6
20200606171005 23 337 3.2 6.4 0.00 0.00 0.00 53 1006.4
20200606170505 23 353 3.2 14.5 0.00 0.00 0.00 53 1006.4
20200606170005 23 359 1.6 4.8 0.00 0.00 0.00 53 1006.2
20200606165505 23 350 3.2 8.0 0.00 0.00 0.00 51 1006.3
20200606165005 23 351 3.2 11.3 0.00 0.00 0.00 51 1006.3
20200606164505 23 21 1.6 1.6 0.00 0.00 0.00 49 1006.1
20200606164004 24 19 1.6 6.4 0.00 0.00 0.00 49 1006.1
20200606163504 24 343 1.6 4.8 0.00 0.00 0.00 49 1006.1
20200606163005 23 289 3.2 8.0 0.00 0.00 0.00 49 1006.1
20200606162505 23 287 4.8 8.0 0.00 0.00 0.00 49 1006.2
20200606162005 24 307 4.8 17.7 0.00 0.00 0.00 48 1006.3
20200606161505 23 298 6.4 11.3 0.00 0.00 0.00 49 1006.1
20200606161005 23 293 8.0 24.1 0.00 0.00 0.00 51 1006.0
20200606160505 23 309 8.0 14.5 0.00 0.00 0.00 50 1006.2
20200606160005 23 312 9.7 20.9 0.00 0.00 0.00 50 1006.3
20200606155505 23 301 9.7 27.4 0.00 0.00 0.00 51 1006.1
20200606155005 23 271 8.0 29.0 0.00 0.00 0.00 51 1006.0
20200606154504 23 249 6.4 8.0 0.00 0.00 0.00 50 1006.0
20200606154005 23 256 9.7 24.1 0.00 0.00 0.00 49 1006.1
20200606153505 23 267 8.0 20.9 0.00 0.00 0.00 48 1006.0
20200606153005 23 274 9.7 35.4 0.00 0.00 0.00 50 1006.0
20200606152505 24 279 9.7 29.0 0.00 0.03 0.00 49 1005.9
20200606152005 25 118 3.2 17.7 0.00 0.03 0.00 46 1006.1
20200606151505 25 120 3.2 11.3 0.00 0.03 0.00 46 1006.0
20200606151005 24 141 4.8 11.3 0.00 0.03 0.00 47 1006.1
20200606150505 24 139 3.2 9.7 0.00 0.03 0.00 49 1006.1
20200606150005 23 124 3.2 11.3 0.00 0.03 0.00 48 1006.2
20200606145504 23 123 4.8 9.7 0.00 0.03 0.00 48 1006.0
20200606145007 23 138 6.4 14.5 0.00 0.03 0.00 50 1006.2
20200606144506 23 168 4.8 9.7 0.00 0.03 0.00 49 1006.4
20200606144006 23 173 4.8 14.5 0.00 0.03 0.00 49 1006.4
20200606143505 23 167 4.8 11.3 0.00 0.03 0.00 49 1006.4
20200606143005 23 197 6.4 11.3 0.00 0.03 0.00 48 1006.3
20200606142520 23 211 8.0 24.1 0.00 0.03 0.00 48 1006.2
20200606142009 23 206 8.0 11.3 0.00 0.03 0.00 49 1006.3
20200606141505 22 236 11.3 24.1 0.00 0.03 0.00 49 1006.4
20200606141005 23 260 9.7 24.1 0.00 0.03 0.00 47 1006.3
20200606140505 23 252 9.7 16.1 0.00 0.03 0.00 49 1006.5
20200606140005 23 237 11.3 32.2 0.00 0.03 0.00 48 1006.5
20200606135505 23 208 9.7 29.0 0.00 0.03 0.00 48 1006.5
20200606135005 23 216 12.9 32.2 0.00 0.03 0.00 48 1006.5
20200606134505 23 216 11.3 20.9 0.00 0.03 0.00 48 1006.4
20200606134005 23 204 9.7 27.4 0.00 0.03 0.00 49 1006.3
20200606133505 23 246 8.0 14.5 0.00 0.03 0.00 48 1006.4
20200606133005 23 265 11.3 38.6 0.00 0.03 0.00 49 1006.6
20200606132505 23 250 12.9 29.0 0.00 0.03 0.00 48 1006.8
20200606132005 23 252 9.7 20.9 0.00 0.03 0.00 49 1006.5
20200606131505 23 232 8.0 24.1 0.00 0.03 0.00 50 1006.5
20200606131005 23 213 8.0 11.3 0.00 0.03 0.00 50 1006.7
20200606130504 23 228 9.7 32.2 0.00 0.03 0.00 49 1006.6
20200606130004 22 244 8.0 20.9 0.00 0.03 0.00 50 1006.5
20200606125505 23 246 6.4 17.7 0.00 0.03 0.00 49 1006.6
20200606125005 22 258 11.3 29.0 0.00 0.03 0.00 49 1006.5
20200606124505 22 273 11.3 32.2 0.00 0.03 0.00 49 1006.8
20200606124004 23 272 9.7 14.5 0.00 0.03 0.00 49 1006.7
20200606123504 22 252 12.9 38.6 0.00 0.03 0.00 49 1006.8
20200606123004 22 250 11.3 35.4 0.00 0.03 0.00 51 1006.6
20200606122505 22 255 12.9 35.4 0.00 0.03 0.00 53 1006.6
20200606122005 22 238 14.5 29.0 0.00 0.03 0.00 52 1006.7
20200606121505 22 245 16.1 38.6 0.00 0.03 0.00 53 1006.7
20200606121005 22 257 11.3 19.3 0.00 0.03 0.00 54 1006.8
20200606120505 22 259 16.1 48.3 0.00 0.03 0.00 53 1006.8
20200606120005 21 258 14.5 38.6 0.00 0.03 0.00 53 1006.7
20200606115505 22 263 11.3 32.2 0.00 0.03 0.00 53 1006.8
20200606115005 21 267 12.9 35.4 0.00 0.03 0.00 53 1006.8
20200606114505 22 275 11.3 35.4 0.00 0.03 0.00 52 1006.8
20200606114006 22 265 16.1 38.6 0.00 0.03 0.00 52 1006.8
20200606113509 22 233 11.3 22.5 0.00 0.03 0.00 50 1006.5
20200606113005 22 237 14.5 38.6 0.00 0.03 0.00 51 1006.6
20200606112505 22 244 14.5 35.4 0.00 0.03 0.00 50 1006.6
20200606112005 21 243 14.5 22.5 0.00 0.03 0.00 51 1006.5
20200606111505 22 252 12.9 45.1 0.00 0.03 0.00 51 1007.0
20200606111005 21 255 20.9 48.3 0.00 0.03 0.00 51 1006.7
20200606110505 21 250 17.7 48.3 0.00 0.03 0.00 51 1006.7
20200606110005 21 246 19.3 30.6 0.00 0.03 0.00 50 1006.8
20200606105505 21 227 16.1 41.8 0.00 0.03 0.00 50 1006.9
20200606105005 21 227 17.7 53.1 0.00 0.03 0.00 51 1006.8
20200606104505 21 236 16.1 32.2 0.00 0.03 0.00 50 1006.7
20200606104005 21 234 11.3 35.4 0.00 0.03 0.00 51 1006.6
20200606103504 21 239 11.3 22.5 0.00 0.03 0.00 49 1006.9
20200606103005 21 231 19.3 45.1 0.00 0.03 0.00 50 1007.1
20200606102508 21 209 19.3 38.6 0.00 0.03 0.00 50 1006.7
20200606102012 21 199 16.1 35.4 0.00 0.03 0.00 50 1006.5
20200606101505 21 207 19.3 48.3 0.00 0.03 0.00 51 1006.6
20200606101004 21 205 19.3 45.1 0.00 0.03 0.00 51 1006.6
20200606100508 21 197 22.5 45.1 0.00 0.05 0.00 51 1006.9
20200606100012 21 195 16.1 27.4 0.00 0.08 0.00 51 1006.6
20200606095505 21 218 14.5 41.8 0.00 0.08 0.00 52 1006.4
20200606095005 20 225 16.1 38.6 0.00 0.08 0.00 53 1006.3
20200606094505 20 209 16.1 41.8 0.00 0.08 0.00 53 1006.5
20200606094004 20 199 17.7 35.4 0.00 0.08 0.00 52 1006.7
20200606093505 20 191 12.9 20.9 0.00 0.08 0.00 52 1006.7
20200606093004 20 185 17.7 48.3 0.00 0.08 0.00 53 1006.5
20200606092504 20 191 14.5 38.6 0.00 0.10 0.00 54 1006.5
20200606092005 20 210 14.5 45.1 0.00 0.10 0.00 54 1006.7
20200606091004 20 201 20.9 48.3 0.00 0.10 0.00 53 1006.6
20200606090505 20 196 12.9 49.9 0.00 0.13 0.00 53 1006.6
20200606090005 20 203 12.9 35.4 0.00 0.13 0.00 54 1006.6
20200606085505 19 204 19.3 56.3 0.00 0.13 0.00 55 1006.6
20200606085005 20 191 16.1 41.8 0.00 0.13 0.00 55 1006.6
20200606084505 20 174 17.7 45.1 0.00 0.13 0.00 55 1006.6
20200606084005 19 181 14.5 41.8 0.00 0.13 0.00 55 1006.2
20200606083504 19 190 17.7 53.1 0.00 0.13 0.00 55 1006.4
20200606083005 19 188 14.5 25.7 0.00 0.13 0.00 57 1006.7
20200606082504 19 197 16.1 35.4 0.00 0.13 0.00 56 1006.5
20200606082004 19 210 12.9 29.0 0.00 0.13 0.00 54 1006.4
20200606081504 18 216 12.9 38.6 0.00 0.13 0.00 55 1006.3
20200606081004 18 231 16.1 22.5 0.00 0.13 0.00 55 1006.4
20200606080504 18 229 19.3 56.3 0.00 0.13 0.00 56 1006.4
20200606080004 18 214 16.1 49.9 0.00 0.13 0.00 54 1006.5
20200606075504 18 210 11.3 29.0 0.00 0.13 0.00 55 1006.3
20200606075004 18 216 14.5 32.2 0.00 0.13 0.00 55 1006.3
20200606074505 18 213 11.3 17.7 0.00 0.13 0.00 56 1006.3
20200606074005 18 211 17.7 35.4 0.00 0.13 0.00 57 1006.1
20200606073505 18 222 14.5 35.4 0.00 0.13 0.00 57 1006.2
20200606073005 17 226 11.3 29.0 0.00 0.13 0.00 58 1006.1
20200606072506 17 226 17.7 48.3 0.00 0.13 0.00 59 1006.2
20200606072005 17 222 17.7 45.1 0.00 0.13 0.00 57 1006.3
20200606071504 17 219 14.5 35.4 0.00 0.13 0.00 59 1006.2
20200606071005 17 235 14.5 45.1 0.00 0.13 0.00 60 1006.0
20200606070504 17 226 19.3 48.3 0.00 0.13 0.00 60 1006.2
20200606070004 17 209 14.5 38.6 0.00 0.13 0.00 60 1005.8
20200606065504 17 219 14.5 35.4 0.00 0.13 0.00 61 1006.0
20200606065004 17 228 14.5 17.7 0.00 0.13 0.00 62 1006.0
20200606064505 16 233 16.1 35.4 0.00 0.13 0.00 63 1006.1
20200606064005 16 226 14.5 35.4 0.00 0.13 0.00 63 1006.3
20200606063505 16 219 16.1 41.8 0.00 0.13 0.00 64 1006.1
20200606063004 16 225 16.1 38.6 0.00 0.13 0.00 65 1006.2
20200606062504 16 233 16.1 35.4 0.00 0.13 0.00 65 1006.0
20200606062004 16 222 12.9 22.5 0.00 0.13 0.00 66 1006.2
20200606061504 16 208 17.7 25.7 0.00 0.13 0.00 66 1006.0
20200606061005 16 208 16.1 38.6 0.00 0.13 0.00 67 1006.0
20200606060505 16 211 11.3 32.2 0.00 0.13 0.00 68 1005.9
20200606060005 16 209 14.5 35.4 0.00 0.13 0.00 68 1005.9
20200606055506 15 201 14.5 32.2 0.00 0.13 0.00 69 1005.8
20200606055004 15 198 14.5 53.1 0.00 0.13 0.00 69 1005.9
20200606054504 15 195 9.7 27.4 0.00 0.13 0.00 70 1005.6
20200606054004 15 200 11.3 29.0 0.00 0.13 0.00 70 1005.4
20200606053504 15 222 11.3 29.0 0.00 0.13 0.00 71 1005.5
20200606053004 15 233 9.7 29.0 0.00 0.13 0.00 71 1005.6
20200606052504 15 237 11.3 16.1 0.00 0.13 0.00 72 1005.5
20200606052004 15 235 9.7 29.0 0.00 0.13 0.00 73 1005.7
20200606051506 15 238 9.7 27.4 0.00 0.13 0.00 74 1005.7
20200606051005 14 242 9.7 24.1 0.00 0.13 0.00 74 1005.6
20200606050505 14 232 8.0 32.2 0.00 0.13 0.00 74 1005.4
20200606050005 14 218 12.9 45.1 0.00 0.13 0.00 75 1005.3
20200606045504 14 206 16.1 22.5 0.00 0.13 0.00 75 1005.4
20200606045004 14 195 17.7 38.6 0.00 0.13 0.00 74 1005.0
20200606044504 14 194 17.7 32.2 0.00 0.13 0.00 75 1004.4
20200606044004 13 207 11.3 17.7 0.00 0.13 0.00 76 1004.7
20200606043504 13 206 16.1 45.1 0.00 0.13 0.00 76 1004.6
20200606043004 13 208 12.9 35.4 0.00 0.13 0.00 76 1004.7
20200606042504 13 213 14.5 32.2 0.00 0.15 0.00 77 1005.0
20200606042004 13 208 12.9 48.3 0.00 0.15 0.00 78 1005.0
20200606041504 13 216 14.5 35.4 0.00 0.15 0.00 77 1005.0
20200606041004 13 218 14.5 24.1 0.00 0.15 0.00 78 1005.0
20200606040505 13 221 12.9 32.2 0.00 0.15 0.00 78 1005.1
20200606040005 13 223 14.5 38.6 0.00 0.15 0.00 77 1004.9
20200606035505 13 216 16.1 41.8 0.00 0.15 0.00 77 1004.7
20200606035004 13 221 12.9 32.2 0.00 0.15 0.00 77 1004.8
20200606034505 13 223 12.9 35.4 0.00 0.15 0.00 77 1004.6
20200606034004 13 221 12.9 27.4 0.00 0.15 0.00 77 1004.5
20200606033504 13 223 9.7 16.1 0.00 0.15 0.00 78 1004.5
20200606033004 13 218 11.3 27.4 0.00 0.15 0.00 78 1004.4
20200606032504 13 209 11.3 32.2 0.00 0.15 0.00 78 1004.3
20200606032004 13 209 12.9 17.7 0.00 0.15 0.00 78 1004.4
20200606031504 13 213 14.5 35.4 0.00 0.15 0.00 78 1004.3
20200606031005 13 209 14.5 38.6 0.00 0.15 0.00 78 1004.2
20200606030505 12 205 12.9 29.0 0.00 0.15 0.00 79 1004.1
20200606030004 12 205 12.9 38.6 0.00 0.15 0.00 81 1004.1
20200606025504 12 214 9.7 16.1 0.00 0.15 0.00 83 1004.1
20200606025004 12 216 9.7 35.4 0.00 0.15 0.00 83 1004.2
20200606024504 12 218 9.7 20.9 0.00 0.15 0.00 84 1004.1
20200606024004 12 218 8.0 29.0 0.00 0.15 0.00 85 1004.2
20200606023504 11 201 4.8 9.7 0.00 0.15 0.00 85 1004.0
20200606023004 11 198 6.4 17.7 0.00 0.15 0.00 86 1004.2
20200606022504 11 190 6.4 17.7 0.00 0.15 0.00 86 1004.3
20200606022005 11 193 6.4 17.7 0.00 0.15 0.00 86 1004.1
20200606021505 11 200 6.4 27.4 0.00 0.15 0.00 86 1004.1
20200606021005 11 197 6.4 14.5 0.00 0.15 0.00 86 1003.7
20200606020504 11 214 4.8 14.5 0.00 0.15 0.00 86 1004.0
20200606020004 12 213 6.4 9.7 0.00 0.15 0.00 85 1004.1
20200606015505 12 204 8.0 17.7 0.00 0.15 0.00 85 1003.7
20200606015004 12 203 9.7 27.4 0.00 0.15 0.00 85 1004.1
20200606014504 12 195 9.7 24.1 0.00 0.15 0.00 85 1003.8
20200606014005 12 190 9.7 29.0 0.00 0.15 0.00 84 1003.7
20200606013504 12 193 8.0 12.9 0.00 0.15 0.00 84 1003.6
20200606013005 12 195 11.3 32.2 0.00 0.15 0.00 84 1003.7
20200606012505 12 200 9.7 32.2 0.00 0.15 0.00 84 1003.6
20200606012005 12 208 11.3 27.4 0.00 0.15 0.00 83 1003.7
20200606011504 12 220 9.7 24.1 0.00 0.15 0.00 83 1003.8
20200606011004 12 229 9.7 27.4 0.00 0.15 0.00 83 1003.6
20200606010504 12 208 9.7 16.1 0.00 0.15 0.00 83 1003.5
20200606010004 12 194 14.5 53.1 0.00 0.15 0.00 83 1003.5
20200606005504 12 200 11.3 32.2 0.00 0.15 0.00 83 1003.4
20200606005004 12 203 11.3 32.2 0.00 0.15 0.00 83 1003.4
20200606004504 12 202 12.9 27.4 0.00 0.15 0.00 83 1003.3
20200606004004 12 196 12.9 29.0 0.00 0.15 0.00 84 1003.4
20200606003504 12 194 12.9 32.2 0.00 0.15 0.00 84 1003.0
20200606003005 12 197 12.9 29.0 0.00 0.15 0.00 84 1003.2
20200606002505 12 199 9.7 17.7 0.00 0.15 0.00 84 1003.4
20200606002005 12 209 12.9 32.2 0.00 0.15 0.00 83 1003.0
20200606001505 12 219 12.9 38.6 0.00 0.15 0.00 83 1003.1
20200606001004 12 220 11.3 41.8 0.00 0.15 0.00 82 1003.2
20200606000504 12 217 11.3 29.0 0.00 0.15 0.00 82 1003.0
20200606000005 12 216 9.7 20.9 0.00 0.15 0.00 82 1003.2
20200605235504 12 223 9.7 12.9 0.00 0.15 0.00 82 1003.0
20200605235004 12 223 11.3 29.0 0.00 0.15 0.00 82 1003.0
20200605234504 12 215 8.0 20.9 0.00 0.15 0.00 82 1002.8
20200605234005 12 214 9.7 14.5 0.00 0.15 0.00 82 1002.8
20200605233504 12 216 9.7 29.0 0.00 0.15 0.00 82 1002.7
20200605233004 12 208 11.3 24.1 0.00 0.15 0.00 82 1002.6
20200605232504 12 196 8.0 14.5 0.00 0.15 0.00 83 1002.7
20200605232004 12 203 9.7 35.4 0.00 0.15 0.00 82 1002.5
20200605231505 12 208 9.7 20.9 0.00 0.15 0.00 82 1002.5
20200605231005 12 204 9.7 24.1 0.00 0.15 0.00 82 1002.7
20200605230504 12 203 11.3 24.1 0.00 0.15 0.00 82 1002.3
20200605230005 12 208 9.7 24.1 0.00 0.15 0.00 83 1002.4
20200605225504 13 212 11.3 32.2 0.00 0.15 0.00 82 1002.2
20200605225004 12 205 12.9 38.6 0.00 0.15 0.00 83 1002.4
20200605224504 12 201 11.3 17.7 0.00 0.15 0.00 84 1002.2
20200605224004 12 200 11.3 29.0 0.00 0.15 0.00 84 1002.1
20200605223505 12 199 11.3 32.2 0.00 0.15 0.00 85 1002.3
20200605223004 12 196 11.3 24.1 0.00 0.15 0.00 85 1002.2
20200605222504 12 202 9.7 14.5 0.00 0.15 0.00 85 1002.1
20200605222004 12 205 12.9 35.4 0.00 0.15 0.00 85 1001.9
20200605221504 12 209 14.5 41.8 0.00 0.15 0.00 85 1002.0
20200605221004 12 209 14.5 35.4 0.00 0.15 0.00 85 1002.0
20200605220503 12 200 9.7 24.1 0.00 0.15 0.00 86 1001.9
20200605220006 12 201 11.3 32.2 0.00 0.15 0.00 86 1001.9
20200605215505 12 195 11.3 35.4 0.00 0.15 0.15 86 1001.8
20200605215004 12 192 6.4 17.7 0.00 0.15 0.15 87 1001.7
20200605214504 12 210 6.4 9.7 0.00 0.15 0.15 87 1001.7
20200605214004 12 201 8.0 17.7 0.00 0.15 0.15 87 1001.6
20200605213504 12 188 6.4 14.5 0.00 0.15 0.15 89 1001.6
20200605213004 12 208 4.8 8.0 0.00 0.15 0.15 89 1001.7
20200605212504 12 235 4.8 11.3 0.00 0.15 0.15 89 1001.8
20200605212004 12 231 3.2 11.3 0.00 0.18 0.15 89 1002.0
20200605211504 12 160 3.2 11.3 0.00 0.20 0.15 90 1001.8
20200605211004 12 132 3.2 8.0 0.00 0.25 0.15 90 1001.6
20200605210504 12 134 4.8 14.5 0.00 0.28 0.15 90 1001.8
20200605210005 12 128 4.8 11.3 0.00 0.33 0.15 90 1001.5
20200605205505 12 129 3.2 8.0 0.00 0.33 0.15 90 1001.5
20200605205005 12 151 3.2 4.8 0.00 0.33 0.15 90 1001.7
20200605204504 12 178 3.2 4.8 0.00 0.33 0.15 90 1001.7
20200605204004 12 202 4.8 6.4 0.00 0.33 0.15 90 1001.5
20200605203504 12 206 4.8 14.5 0.00 0.33 0.15 90 1001.7
20200605203004 12 184 4.8 11.3 0.00 0.33 0.15 90 1001.6
20200605202504 12 169 3.2 6.4 0.00 0.33 0.15 90 1001.4
20200605202004 12 171 4.8 14.5 0.00 0.33 0.15 90 1001.4
20200605201504 12 165 4.8 8.0 0.00 0.33 0.15 89 1001.4
20200605201004 12 156 4.8 11.3 0.00 0.33 0.15 89 1001.4
20200605200504 12 140 4.8 6.4 0.00 0.33 0.15 89 1001.5
20200605200004 12 134 3.2 8.0 0.00 0.33 0.15 89 1001.6
20200605195505 12 144 4.8 11.3 0.00 0.33 0.15 88 1001.6
20200605195004 13 153 4.8 11.3 0.00 0.33 0.15 88 1001.3
20200605194504 13 155 4.8 14.5 0.00 0.33 0.15 87 1001.3
20200605194004 13 154 4.8 6.4 0.00 0.33 0.15 87 1001.5
20200605193504 13 142 4.8 11.3 0.00 0.33 0.15 87 1001.3
20200605193005 13 118 3.2 11.3 0.00 0.33 0.15 87 1001.2
20200605192504 13 114 3.2 8.0 0.00 0.33 0.15 87 1001.2
20200605192004 13 113 3.2 8.0 0.00 0.33 0.15 87 1001.1
20200605191504 13 123 3.2 4.8 0.00 0.33 0.15 87 1001.3
20200605191004 13 121 4.8 11.3 0.00 0.33 0.15 86 1000.9
20200605190504 13 105 4.8 8.0 0.00 0.33 0.15 86 1000.8
20200605190004 13 93 3.2 4.8 0.00 0.33 0.15 86 1000.7
20200605185505 13 84 1.6 6.4 0.00 0.33 0.15 86 1000.9
20200605185004 13 99 1.6 3.2 0.00 0.33 0.15 86 1000.6
20200605184504 13 111 3.2 11.3 0.00 0.33 0.15 86 1000.6
20200605184004 13 117 3.2 11.3 0.00 0.33 0.15 86 1000.6
20200605183504 13 138 3.2 8.0 0.00 0.33 0.15 86 1000.7
20200605183004 13 164 4.8 8.0 0.00 0.33 0.15 86 1000.7
20200605182504 13 173 3.2 3.2 0.00 0.33 0.15 86 1000.6
20200605182004 13 155 4.8 6.4 0.00 0.33 0.15 85 1000.6
20200605181504 13 123 3.2 8.0 0.00 0.33 0.15 87 1000.3
20200605181004 13 130 3.2 8.0 0.00 0.33 0.15 88 1000.6
20200605180504 13 111 3.2 4.8 0.00 0.33 0.15 88 1000.5
20200605180004 13 85 3.2 3.2 0.00 0.33 0.15 88 1000.3
20200605175505 13 15 1.6 6.4 0.00 0.33 0.15 89 1000.2
20200605175004 13 17 1.6 6.4 0.00 0.33 0.15 89 1000.4
20200605174504 13 19 0.0 3.2 0.00 0.33 0.15 88 1000.3
20200605174004 13 16 1.6 6.4 0.00 0.33 0.15 87 1000.1
20200605173504 13 356 1.6 3.2 0.00 0.33 0.15 87 1000.2
20200605173004 13 352 3.2 4.8 0.00 0.33 0.15 86 1000.3